createdAt,value
2019-03-27T00:01:18.684Z,68.41
2019-03-27T00:03:50.186Z,68.39
2019-03-27T00:06:21.696Z,68.56
2019-03-27T00:08:53.206Z,68.51
2019-03-27T00:11:24.802Z,68.70
2019-03-27T00:13:56.333Z,69.00
2019-03-27T00:16:27.822Z,69.10
2019-03-27T00:19:00.402Z,68.52
2019-03-27T00:21:31.912Z,68.88
2019-03-27T00:24:03.398Z,69.32
2019-03-27T00:26:34.885Z,69.80
2019-03-27T00:29:06.400Z,69.60
2019-03-27T00:31:37.916Z,69.41
2019-03-27T00:34:09.481Z,69.95
2019-03-27T00:36:41.014Z,70.06
2019-03-27T00:39:12.533Z,70.09
2019-03-27T00:41:44.027Z,69.55
2019-03-27T00:44:15.607Z,69.85
2019-03-27T00:46:47.162Z,70.03
2019-03-27T00:49:18.710Z,69.80
2019-03-27T00:51:50.194Z,69.61
2019-03-27T00:54:21.708Z,69.28
2019-03-27T00:56:53.282Z,69.73
2019-03-27T00:59:24.790Z,69.37
2019-03-27T01:01:56.292Z,69.41
2019-03-27T01:04:27.779Z,69.44
2019-03-27T01:06:59.370Z,69.72
2019-03-27T01:09:30.905Z,69.99
2019-03-27T01:12:02.556Z,70.12
2019-03-27T01:14:34.136Z,70.59
2019-03-27T01:17:05.709Z,70.07
2019-03-27T01:19:37.566Z,70.12
2019-03-27T01:22:09.149Z,69.79
2019-03-27T01:24:40.707Z,70.11
2019-03-27T01:27:12.199Z,70.44
2019-03-27T01:29:43.715Z,69.92
2019-03-27T01:32:15.230Z,69.62
2019-03-27T01:34:46.806Z,69.74
2019-03-27T01:37:18.312Z,70.00
2019-03-27T01:39:49.864Z,69.81
2019-03-27T01:42:21.390Z,69.63
2019-03-27T01:44:52.942Z,69.44
2019-03-27T01:47:24.451Z,69.57
2019-03-27T01:49:56.036Z,69.21
2019-03-27T01:52:27.547Z,69.35
2019-03-27T01:54:59.076Z,69.30
2019-03-27T01:57:30.606Z,69.07
2019-03-27T02:00:02.094Z,69.10
2019-03-27T02:02:33.747Z,68.57
2019-03-27T02:05:07.175Z,68.84
2019-03-27T02:07:38.689Z,69.21
2019-03-27T02:10:10.810Z,69.56
2019-03-27T02:12:42.364Z,69.96
2019-03-27T02:15:13.878Z,69.66
2019-03-27T02:17:45.396Z,69.49
2019-03-27T02:20:16.978Z,69.43
2019-03-27T02:22:48.481Z,69.62
2019-03-27T02:25:20.130Z,69.41
2019-03-27T02:27:51.710Z,69.49
2019-03-27T02:30:24.363Z,69.75
2019-03-27T02:32:55.856Z,69.56
2019-03-27T02:35:27.379Z,69.13
2019-03-27T02:37:58.887Z,69.26
2019-03-27T02:40:30.412Z,69.30
2019-03-27T02:43:01.996Z,68.85
2019-03-27T02:45:33.549Z,68.98
2019-03-27T02:48:05.054Z,68.84
2019-03-27T02:50:36.711Z,68.82
2019-03-27T02:53:08.239Z,68.93
2019-03-27T02:55:39.785Z,69.31
2019-03-27T02:58:11.548Z,69.59
2019-03-27T03:00:43.047Z,69.46
2019-03-27T03:03:14.594Z,69.57
2019-03-27T03:05:46.109Z,69.51
2019-03-27T03:08:17.615Z,69.66
2019-03-27T03:10:49.102Z,69.74
2019-03-27T03:13:20.608Z,69.64
2019-03-27T03:15:52.117Z,69.47
2019-03-27T03:18:23.745Z,69.47
2019-03-27T03:20:55.332Z,69.34
2019-03-27T03:23:26.919Z,69.36
2019-03-27T03:25:58.436Z,69.24
2019-03-27T03:28:29.926Z,68.91
2019-03-27T03:31:01.449Z,68.55
2019-03-27T03:33:34.646Z,68.62
2019-03-27T03:36:06.209Z,68.71
2019-03-27T03:38:37.790Z,68.46
2019-03-27T03:41:09.310Z,68.51
2019-03-27T03:43:40.871Z,68.48
2019-03-27T03:46:12.429Z,68.96
2019-03-27T03:48:43.987Z,68.62
2019-03-27T03:51:15.487Z,68.99
2019-03-27T03:53:47.002Z,68.82
2019-03-27T03:56:18.563Z,68.58
2019-03-27T03:58:50.110Z,68.36
2019-03-27T04:01:22.078Z,68.45
2019-03-27T04:03:53.592Z,68.74
2019-03-27T04:06:25.607Z,68.84
2019-03-27T04:08:57.107Z,69.29
2019-03-27T04:11:28.674Z,69.16
2019-03-27T04:14:00.245Z,68.75
2019-03-27T04:16:31.783Z,68.71
2019-03-27T04:19:03.430Z,68.54
2019-03-27T04:21:34.983Z,68.79
2019-03-27T04:24:07.616Z,69.19
2019-03-27T04:26:39.143Z,69.08
2019-03-27T04:29:10.653Z,69.37
2019-03-27T04:31:42.154Z,69.17
2019-03-27T04:34:13.662Z,69.14
2019-03-27T04:36:45.172Z,68.97
2019-03-27T04:39:16.755Z,68.60
2019-03-27T04:41:48.287Z,68.76
2019-03-27T04:44:19.773Z,68.53
2019-03-27T04:46:51.270Z,69.09
2019-03-27T04:49:22.766Z,69.18
2019-03-27T04:51:54.292Z,68.92
2019-03-27T04:54:27.116Z,69.15
2019-03-27T04:56:58.811Z,68.91
2019-03-27T04:59:30.347Z,68.81
2019-03-27T05:02:01.855Z,69.06
2019-03-27T05:04:33.412Z,68.47
2019-03-27T05:07:05.118Z,68.64
2019-03-27T05:09:36.605Z,68.55
2019-03-27T05:12:08.097Z,68.16
2019-03-27T05:14:39.594Z,68.12
2019-03-27T05:17:11.180Z,68.20
2019-03-27T05:19:42.723Z,68.33
2019-03-27T05:22:14.377Z,68.01
2019-03-27T05:24:45.887Z,67.67
2019-03-27T05:27:17.401Z,67.77
2019-03-27T05:29:48.899Z,67.62
2019-03-27T05:32:20.435Z,67.60
2019-03-27T05:34:51.948Z,67.40
2019-03-27T05:37:23.476Z,67.83
2019-03-27T05:39:54.977Z,67.33
2019-03-27T05:42:26.539Z,67.38
2019-03-27T05:44:58.056Z,67.03
2019-03-27T05:47:29.631Z,66.84
2019-03-27T05:50:01.176Z,66.78
2019-03-27T05:52:32.768Z,66.59
2019-03-27T05:55:04.727Z,65.82
2019-03-27T05:57:36.241Z,64.70
2019-03-27T06:00:07.986Z,63.89
2019-03-27T06:02:39.486Z,62.77
2019-03-27T06:05:11.010Z,62.29
2019-03-27T06:07:42.528Z,61.95
2019-03-27T06:10:16.325Z,60.74
2019-03-27T06:12:47.365Z,60.24
2019-03-27T06:15:18.952Z,59.52
2019-03-27T06:17:50.481Z,58.60
2019-03-27T06:20:21.999Z,58.58
2019-03-27T06:22:53.494Z,58.16
2019-03-27T06:25:25.145Z,57.05
2019-03-27T06:27:57.126Z,56.19
2019-03-27T06:30:28.680Z,55.25
2019-03-27T06:33:00.176Z,54.83
2019-03-27T06:35:31.765Z,54.37
2019-03-27T06:38:03.358Z,53.84
2019-03-27T06:40:35.016Z,54.16
2019-03-27T06:43:06.602Z,53.60
2019-03-27T06:45:38.294Z,53.04
2019-03-27T06:48:09.891Z,53.23
2019-03-27T06:50:41.439Z,52.77
2019-03-27T06:53:12.979Z,52.64
2019-03-27T06:55:44.633Z,52.70
2019-03-27T06:58:16.204Z,52.38
2019-03-27T07:00:47.818Z,51.53
2019-03-27T07:03:19.398Z,51.51
2019-03-27T07:05:51.338Z,50.87
2019-03-27T07:08:22.851Z,51.14
2019-03-27T07:10:54.332Z,50.83
2019-03-27T07:13:25.979Z,50.27
2019-03-27T07:15:57.506Z,49.39
2019-03-27T07:18:39.570Z,49.25
2019-03-27T07:21:02.261Z,49.10
2019-03-27T07:23:33.812Z,49.22
2019-03-27T07:26:06.540Z,49.65
2019-03-27T07:28:39.194Z,49.46
2019-03-27T07:31:10.715Z,49.55
2019-03-27T07:33:42.217Z,49.27
2019-03-27T07:36:13.792Z,49.53
2019-03-27T07:38:45.301Z,49.11
2019-03-27T07:41:16.859Z,49.05
2019-03-27T07:43:48.372Z,48.92
2019-03-27T07:46:19.884Z,49.17
2019-03-27T07:48:54.083Z,49.31
2019-03-27T07:51:24.600Z,49.06
2019-03-27T07:53:56.147Z,48.53
2019-03-27T07:56:27.647Z,48.22
2019-03-27T07:58:59.922Z,48.31
2019-03-27T08:01:31.531Z,47.99
2019-03-27T08:04:03.108Z,45.61
2019-03-27T08:06:34.593Z,45.55
2019-03-27T08:09:08.263Z,45.12
2019-03-27T08:11:39.914Z,44.59
2019-03-27T08:14:11.554Z,45.10
2019-03-27T08:16:44.225Z,44.82
2019-03-27T08:19:15.769Z,43.89
2019-03-27T08:21:47.255Z,43.68
2019-03-27T08:24:18.795Z,43.08
2019-03-27T08:26:50.377Z,42.16
2019-03-27T08:29:21.955Z,41.47
2019-03-27T08:31:53.499Z,41.32
2019-03-27T08:34:24.993Z,40.02
2019-03-27T08:36:56.524Z,39.95
2019-03-27T08:39:28.046Z,40.51
2019-03-27T08:41:59.534Z,38.98
2019-03-27T08:44:31.052Z,37.66
2019-03-27T08:47:02.704Z,39.31
2019-03-27T08:49:34.208Z,38.46
2019-03-27T08:52:06.797Z,38.72
2019-03-27T08:54:38.323Z,39.40
2019-03-27T08:57:09.819Z,39.41
2019-03-27T08:59:42.400Z,39.20
2019-03-27T09:02:14.048Z,39.46
2019-03-27T09:04:45.569Z,39.66
2019-03-27T09:07:17.162Z,39.21
2019-03-27T09:09:48.675Z,38.67
2019-03-27T09:12:20.205Z,38.94
2019-03-27T09:14:51.765Z,39.63
2019-03-27T09:17:23.277Z,40.02
2019-03-27T09:19:54.809Z,39.58
2019-03-27T09:22:26.305Z,40.13
2019-03-27T09:24:57.885Z,39.13
2019-03-27T09:27:29.425Z,38.96
2019-03-27T09:30:00.990Z,40.09
2019-03-27T09:32:32.498Z,38.13
2019-03-27T09:35:04.153Z,37.76
2019-03-27T09:37:35.676Z,37.05
2019-03-27T09:40:07.190Z,37.86
2019-03-27T09:42:38.788Z,38.46
2019-03-27T09:45:10.273Z,39.42
2019-03-27T09:47:41.793Z,38.67
2019-03-27T09:50:14.944Z,38.35
2019-03-27T09:52:46.477Z,38.61
2019-03-27T09:55:18.002Z,38.94
2019-03-27T09:57:49.655Z,37.37
2019-03-27T10:00:40.812Z,38.30
2019-03-27T10:03:12.382Z,37.01
2019-03-27T10:05:43.879Z,36.93
2019-03-27T10:08:15.464Z,37.56
2019-03-27T10:10:47.028Z,38.44
2019-03-27T10:13:19.410Z,38.38
2019-03-27T10:15:50.904Z,38.49
2019-03-27T10:18:23.481Z,37.84
2019-03-27T10:20:55.146Z,38.06
2019-03-27T10:23:26.635Z,37.34
2019-03-27T10:25:58.144Z,37.13
2019-03-27T10:28:29.662Z,37.44
2019-03-27T10:31:01.177Z,37.53
2019-03-27T10:33:32.690Z,37.27
2019-03-27T10:36:04.181Z,37.07
2019-03-27T10:38:35.693Z,37.56
2019-03-27T10:41:07.198Z,37.81
2019-03-27T10:43:38.695Z,37.98
2019-03-27T10:46:10.299Z,37.31
2019-03-27T10:48:51.989Z,36.26
2019-03-27T10:51:15.055Z,36.66
2019-03-27T10:53:46.633Z,37.32
2019-03-27T10:56:18.217Z,39.13
2019-03-27T10:58:49.822Z,38.47
2019-03-27T11:01:21.301Z,37.97
2019-03-27T11:03:52.821Z,37.83
2019-03-27T11:06:24.388Z,39.30
2019-03-27T11:08:55.957Z,39.01
2019-03-27T11:11:27.486Z,38.45
2019-03-27T11:13:58.990Z,39.23
2019-03-27T11:16:31.466Z,38.98
2019-03-27T11:19:02.965Z,38.33
2019-03-27T11:21:34.482Z,38.36
2019-03-27T11:24:05.983Z,39.59
2019-03-27T11:26:37.540Z,39.21
2019-03-27T11:29:09.058Z,39.12
2019-03-27T11:31:40.650Z,38.77
2019-03-27T11:34:12.181Z,38.65
2019-03-27T11:36:43.679Z,37.84
2019-03-27T11:39:15.337Z,37.94
2019-03-27T11:41:47.002Z,37.74
2019-03-27T11:44:19.465Z,38.02
2019-03-27T11:46:51.049Z,38.81
2019-03-27T11:49:22.562Z,38.56
2019-03-27T11:51:54.064Z,38.51
2019-03-27T11:54:25.573Z,38.50
2019-03-27T11:56:57.092Z,40.71
2019-03-27T11:59:28.621Z,41.51
2019-03-27T12:02:00.162Z,42.48
2019-03-27T12:04:31.742Z,42.54
2019-03-27T12:07:03.245Z,41.89
2019-03-27T12:09:34.834Z,41.89
2019-03-27T12:12:06.360Z,42.05
2019-03-27T12:14:37.921Z,42.13
2019-03-27T12:17:09.541Z,43.15
2019-03-27T12:19:41.060Z,43.01
2019-03-27T12:22:12.618Z,42.22
2019-03-27T12:24:44.129Z,41.27
2019-03-27T12:27:15.659Z,41.71
2019-03-27T12:29:47.170Z,43.26
2019-03-27T12:32:18.657Z,43.64
2019-03-27T12:34:50.169Z,45.34
2019-03-27T12:37:21.660Z,46.16
2019-03-27T12:39:53.175Z,47.07
2019-03-27T12:42:24.701Z,47.58
2019-03-27T12:44:56.285Z,48.94
2019-03-27T12:47:27.872Z,49.48
2019-03-27T12:49:59.388Z,49.62
2019-03-27T12:52:31.026Z,49.51
2019-03-27T12:55:02.544Z,50.17
2019-03-27T12:57:34.131Z,50.05
2019-03-27T13:00:08.437Z,50.29
2019-03-27T13:02:40.991Z,50.94
2019-03-27T13:05:12.569Z,50.65
2019-03-27T13:07:50.045Z,50.15
2019-03-27T13:10:17.285Z,48.96
2019-03-27T13:12:48.808Z,48.71
2019-03-27T13:15:20.335Z,48.08
2019-03-27T13:17:51.866Z,47.92
2019-03-27T13:20:23.378Z,48.07
2019-03-27T13:22:54.901Z,48.75
2019-03-27T13:25:26.418Z,49.59
2019-03-27T13:27:58.022Z,50.50
2019-03-27T13:30:29.557Z,51.76
2019-03-27T13:33:01.148Z,52.24
2019-03-27T13:35:33.815Z,52.81
2019-03-27T13:38:05.330Z,52.06
2019-03-27T13:40:36.822Z,50.59
2019-03-27T13:43:08.339Z,51.09
2019-03-27T13:45:39.980Z,52.00
2019-03-27T13:48:11.486Z,51.45
2019-03-27T13:50:42.973Z,51.25
2019-03-27T13:53:14.562Z,51.16
2019-03-27T13:55:46.150Z,50.50
2019-03-27T13:58:17.645Z,50.76
2019-03-27T14:00:49.165Z,51.45
2019-03-27T14:03:20.679Z,51.34
2019-03-27T14:05:52.193Z,51.45
2019-03-27T14:08:23.775Z,51.83
2019-03-27T14:10:55.287Z,52.08
2019-03-27T14:13:26.816Z,52.77
2019-03-27T14:15:58.333Z,52.64
2019-03-27T14:18:29.846Z,51.94
2019-03-27T14:21:01.344Z,51.56
2019-03-27T14:23:33.037Z,51.64
2019-03-27T14:26:04.559Z,51.42
2019-03-27T14:28:36.147Z,51.20
2019-03-27T14:31:09.302Z,50.77
2019-03-27T14:33:40.840Z,49.92
2019-03-27T14:36:12.427Z,49.72
2019-03-27T14:38:44.011Z,49.88
2019-03-27T14:41:15.593Z,49.75
2019-03-27T14:43:47.261Z,49.49
2019-03-27T14:46:18.779Z,49.36
2019-03-27T14:48:50.292Z,49.54
2019-03-27T14:51:21.908Z,49.19
2019-03-27T14:53:53.426Z,49.41
2019-03-27T14:56:24.925Z,50.12
2019-03-27T14:58:56.536Z,50.16
2019-03-27T15:01:28.077Z,50.39
2019-03-27T15:03:59.765Z,50.43
2019-03-27T15:06:31.286Z,50.65
2019-03-27T15:09:03.981Z,51.17
2019-03-27T15:11:35.693Z,51.15
2019-03-27T15:14:07.200Z,51.56
2019-03-27T15:16:38.772Z,51.63
2019-03-27T15:19:10.305Z,51.80
2019-03-27T15:21:41.808Z,52.07
2019-03-27T15:24:13.310Z,52.19
2019-03-27T15:26:44.898Z,52.17
2019-03-27T15:29:16.417Z,52.40
2019-03-27T15:31:48.017Z,52.19
2019-03-27T15:34:22.611Z,52.03
2019-03-27T15:36:54.192Z,51.97
2019-03-27T15:39:25.706Z,52.83
2019-03-27T15:41:57.198Z,53.27
2019-03-27T15:44:28.761Z,53.25
2019-03-27T15:47:00.270Z,53.44
2019-03-27T15:49:31.850Z,53.68
2019-03-27T15:52:03.350Z,53.65
2019-03-27T15:54:34.859Z,53.83
2019-03-27T15:57:06.517Z,54.01
2019-03-27T15:59:38.033Z,54.18
2019-03-27T16:02:09.917Z,54.19
2019-03-27T16:04:41.502Z,54.53
2019-03-27T16:07:13.219Z,54.67
2019-03-27T16:09:44.849Z,54.73
2019-03-27T16:12:16.317Z,54.91
2019-03-27T16:14:47.906Z,54.87
2019-03-27T16:17:19.411Z,55.03
2019-03-27T16:19:50.920Z,55.03
2019-03-27T16:22:22.532Z,55.08
2019-03-27T16:24:55.744Z,55.30
2019-03-27T16:27:28.951Z,55.31
2019-03-27T16:30:00.627Z,55.30
2019-03-27T16:32:32.261Z,55.47
2019-03-27T16:35:08.988Z,55.43
2019-03-27T16:37:41.558Z,55.73
2019-03-27T16:40:20.273Z,55.83
2019-03-27T16:43:01.209Z,55.93
2019-03-27T16:45:37.214Z,56.25
2019-03-27T16:48:08.862Z,56.54
2019-03-27T16:50:40.444Z,56.57
2019-03-27T16:53:28.892Z,56.89
2019-03-27T16:56:00.612Z,56.76
2019-03-27T16:58:32.144Z,57.05
2019-03-27T17:01:03.714Z,56.99
2019-03-27T17:03:35.260Z,57.14
2019-03-27T17:06:06.782Z,57.10
2019-03-27T17:08:38.369Z,57.07
2019-03-27T17:11:10.082Z,57.34
2019-03-27T17:13:43.215Z,57.24
2019-03-27T17:16:14.794Z,57.45
2019-03-27T17:18:49.164Z,57.57
2019-03-27T17:21:22.546Z,57.56
2019-03-27T17:23:54.098Z,57.52
2019-03-27T17:26:25.657Z,57.36
2019-03-27T17:28:57.212Z,57.49
2019-03-27T17:31:28.760Z,57.75
2019-03-27T17:34:00.304Z,57.59
2019-03-27T17:36:31.881Z,57.68
2019-03-27T17:39:08.416Z,58.04
2019-03-27T17:41:40.387Z,58.44
2019-03-27T17:44:12.013Z,58.91
2019-03-27T17:46:43.680Z,59.40
2019-03-27T17:49:16.651Z,59.85
2019-03-27T17:51:49.798Z,60.09
2019-03-27T17:54:22.150Z,60.03
2019-03-27T17:56:53.726Z,60.00
2019-03-27T17:59:25.281Z,60.06
2019-03-27T18:01:59.839Z,60.19
2019-03-27T18:04:31.362Z,60.33
2019-03-27T18:07:02.885Z,60.41
2019-03-27T18:09:34.502Z,60.41
2019-03-27T18:12:06.026Z,60.41
2019-03-27T18:14:37.648Z,60.50
2019-03-27T18:17:09.174Z,60.41
2019-03-27T18:19:40.686Z,60.40
2019-03-27T18:22:12.214Z,60.36
2019-03-27T18:24:43.713Z,60.30
2019-03-27T18:27:15.293Z,60.44
2019-03-27T18:29:46.931Z,60.36
2019-03-27T18:32:18.451Z,60.21
2019-03-27T18:34:49.973Z,60.37
2019-03-27T18:37:22.617Z,60.48
2019-03-27T18:39:54.200Z,60.40
2019-03-27T18:42:25.723Z,60.42
2019-03-27T18:44:58.317Z,60.43
2019-03-27T18:47:29.898Z,60.58
2019-03-27T18:50:02.964Z,60.85
2019-03-27T18:52:34.554Z,60.78
2019-03-27T18:55:07.138Z,60.75
2019-03-27T18:57:38.835Z,60.89
2019-03-27T19:00:10.396Z,60.74
2019-03-27T19:02:41.990Z,60.84
2019-03-27T19:05:13.589Z,60.97
2019-03-27T19:07:45.110Z,61.10
2019-03-27T19:10:16.634Z,61.20
2019-03-27T19:12:48.247Z,62.03
2019-03-27T19:15:20.901Z,62.27
2019-03-27T19:17:52.440Z,63.31
2019-03-27T19:20:23.949Z,64.34
2019-03-27T19:22:55.478Z,65.30
2019-03-27T19:25:27.129Z,65.95
2019-03-27T19:27:59.720Z,66.37
2019-03-27T19:30:31.238Z,66.68
2019-03-27T19:33:02.965Z,66.99
2019-03-27T19:35:34.546Z,67.29
2019-03-27T19:38:06.135Z,67.18
2019-03-27T19:40:38.922Z,66.92
2019-03-27T19:43:10.579Z,66.87
2019-03-27T19:45:42.298Z,66.91
2019-03-27T19:48:14.057Z,67.45
2019-03-27T19:50:51.247Z,68.24
2019-03-27T19:53:22.944Z,68.72
2019-03-27T19:55:54.628Z,69.02
2019-03-27T19:58:26.843Z,69.59
2019-03-27T20:01:03.902Z,69.53
2019-03-27T20:03:40.340Z,69.78
2019-03-27T20:06:15.212Z,70.41
2019-03-27T20:08:48.433Z,70.04
2019-03-27T20:11:20.065Z,70.73
2019-03-27T20:13:51.629Z,71.17
2019-03-27T20:16:24.242Z,71.44
2019-03-27T20:18:55.911Z,71.60
2019-03-27T20:24:19.611Z,71.49
2019-03-27T20:26:52.999Z,71.83
2019-03-27T20:29:35.818Z,71.90
2019-03-27T20:32:09.183Z,72.24
2019-03-27T20:34:45.925Z,72.52
2019-03-27T20:40:51.772Z,72.56
2019-03-27T20:49:51.619Z,72.65
2019-03-27T20:52:29.415Z,72.44
2019-03-27T20:55:01.140Z,72.48
2019-03-27T20:57:34.117Z,72.53
2019-03-27T21:00:07.349Z,72.55
2019-03-27T21:02:39.224Z,72.70
2019-03-27T21:05:10.821Z,73.06
2019-03-27T21:07:46.558Z,72.88
2019-03-27T21:10:19.081Z,72.88
2019-03-27T21:12:50.662Z,73.10
2019-03-27T21:15:22.231Z,73.14
2019-03-27T21:17:53.771Z,73.56
2019-03-27T21:20:25.303Z,73.46
2019-03-27T21:22:56.934Z,73.33
2019-03-27T21:25:30.276Z,73.60
2019-03-27T21:28:01.928Z,73.52
2019-03-27T21:30:38.539Z,73.79
2019-03-27T21:33:11.652Z,73.92
2019-03-27T21:35:43.265Z,74.04
2019-03-27T21:38:14.941Z,74.26
2019-03-27T21:40:46.521Z,74.05
2019-03-27T21:43:18.198Z,74.12
2019-03-27T21:45:49.867Z,74.16
2019-03-27T21:48:21.494Z,74.26
2019-03-27T21:50:55.438Z,74.22
2019-03-27T21:53:27.181Z,74.01
2019-03-27T21:55:58.733Z,74.11
2019-03-27T21:58:30.316Z,74.07
2019-03-27T22:01:02.921Z,74.21
2019-03-27T22:03:34.577Z,74.27
2019-03-27T22:06:06.085Z,74.19
2019-03-27T22:08:39.231Z,74.05
2019-03-27T22:11:10.685Z,73.98
2019-03-27T22:13:42.186Z,73.84
2019-03-27T22:16:13.723Z,73.72
2019-03-27T22:18:45.236Z,73.62
2019-03-27T22:21:18.185Z,73.69
2019-03-27T22:23:49.779Z,73.78
2019-03-27T22:26:21.302Z,73.80
2019-03-27T22:28:52.808Z,73.84
2019-03-27T22:31:24.323Z,73.96
2019-03-27T22:33:55.959Z,73.71
2019-03-27T22:36:27.528Z,73.59
2019-03-27T22:38:59.027Z,73.27
2019-03-27T22:41:32.225Z,73.23
2019-03-27T22:44:04.212Z,73.43
2019-03-27T22:46:35.726Z,73.10
2019-03-27T22:49:07.239Z,73.19
2019-03-27T22:51:38.744Z,73.30
2019-03-27T22:54:10.240Z,73.34
2019-03-27T22:56:41.767Z,73.38
2019-03-27T22:59:13.275Z,73.33
2019-03-27T23:01:46.186Z,73.28
2019-03-27T23:04:17.736Z,73.17
2019-03-27T23:06:49.244Z,73.23
2019-03-27T23:09:20.829Z,73.35
2019-03-27T23:11:52.420Z,73.22
2019-03-27T23:14:24.010Z,73.23
2019-03-27T23:16:55.599Z,73.59
2019-03-27T23:19:27.161Z,73.73
2019-03-27T23:21:58.650Z,73.48
2019-03-27T23:24:30.241Z,72.85
2019-03-27T23:27:01.829Z,72.75
2019-03-27T23:29:33.409Z,72.58
2019-03-27T23:32:04.998Z,72.74
2019-03-27T23:34:36.512Z,72.86
2019-03-27T23:37:08.099Z,72.88
2019-03-27T23:39:39.743Z,72.80
2019-03-27T23:42:11.240Z,72.64
2019-03-27T23:44:42.850Z,72.67
2019-03-27T23:47:14.363Z,72.64
2019-03-27T23:49:45.898Z,72.53
2019-03-27T23:52:17.469Z,72.66
2019-03-27T23:54:49.305Z,72.66
2019-03-27T23:57:20.828Z,72.59
2019-03-27T23:59:52.412Z,72.73
